LYBE/BEG METAR and TAF weather

Enter ICAO airport designator
Station Type Date Time Source
LYBE METAR 2023/02/04 03:00 UTC NOAA

LYBE 040300Z 26013KT CAVOK 05/02 Q1015 NOSIG


Station Type Date Time Source
LYBE Decoded METAR 2023/02/04 03:00 UTC NOAA

Beograd / Surcin, Serbia and Montenegro (LYBE) 44-49N 020-17E 99M
Feb 03, 2023 - 10:00 PM EST / 2023.02.04 0300 UTC
Wind: from the W (260 degrees) at 15 MPH (13 KT):0
Visibility: greater than 7 mile(s):0
Temperature: 41 F (5 C)
Dew Point: 35 F (2 C)
Relative Humidity: 80%
Pressure (altimeter): 29.97 in. Hg (1015 hPa)
ob: LYBE 040300Z 26013KT CAVOK 05/02 Q1015 NOSIG
cycle: 3

Station Type Date Time Source
LYBE TAF 2023/02/03 18:21 UTC NOAA

TAF LYBE 031700Z 0318/0418 18005KT 9999 BKN040 TX06/0412Z TN02/0418Z
TEMPO 0318/0324 5000 RA
BECMG 0321/0323 27014KT
TEMPO 0405/0410 RA
BECMG 0409/0411 33016KT
TEMPO 0410/0416 34020G36KT 3000 SHSN SCT023TCU SCT027

Example: see airport list